KSSF/SSF METAR and TAF weather

Enter ICAO airport designator
Station Type Date Time Source
KSSF METAR 2022/05/26 03:53 UTC NOAA

KSSF 260353Z AUTO 00000KT 10SM CLR 21/13 A2994 RMK AO2 SLP130 T02060133 $


Station Type Date Time Source
KSSF Decoded METAR 2022/05/26 03:53 UTC NOAA

SAN ANTONIO STINSON MUNI, TX, United States (KSSF) 29-20N 098-28W 176M
May 25, 2022 - 11:53 PM EDT / 2022.05.26 0353 UTC
Wind: Calm:0
Visibility: 10 mile(s):0
Sky conditions: clear
Temperature: 69.1 F (20.6 C)
Dew Point: 55.9 F (13.3 C)
Relative Humidity: 62%
Pressure (altimeter): 29.94 in. Hg (1013 hPa)
ob: KSSF 260353Z AUTO 00000KT 10SM CLR 21/13 A2994 RMK AO2 SLP130 T02060133
cycle: 4

Station Type Date Time Source
KSSF TAF 2022/05/25 18:30 UTC NOAA

TAF KSSF 251727Z 2518/2618 33010G20KT P6SM SKC
FM252200 35003KT P6SM SKC
FM261500 20006KT P6SM SKC

Example: see airport list